sensor_id;sensor_type;location;lat;lon;timestamp;P1;durP1;ratioP1;P2;durP2;ratioP2
24137;SDS011;17947;50.672;6.076;2023-03-26T00:00:08;4.25;;;1.90;;
24137;SDS011;17947;50.672;6.076;2023-03-26T00:02:36;5.70;;;1.90;;
24137;SDS011;17947;50.672;6.076;2023-03-26T00:05:03;5.40;;;1.98;;
24137;SDS011;17947;50.672;6.076;2023-03-26T00:07:29;5.55;;;2.08;;
24137;SDS011;17947;50.672;6.076;2023-03-26T00:09:55;5.63;;;2.05;;
24137;SDS011;17947;50.672;6.076;2023-03-26T00:12:23;4.82;;;2.10;;
24137;SDS011;17947;50.672;6.076;2023-03-26T00:14:49;4.60;;;2.10;;
24137;SDS011;17947;50.672;6.076;2023-03-26T00:17:16;2.75;;;1.63;;
24137;SDS011;17947;50.672;6.076;2023-03-26T00:19:42;4.15;;;2.17;;
24137;SDS011;17947;50.672;6.076;2023-03-26T00:22:09;6.07;;;2.25;;
24137;SDS011;17947;50.672;6.076;2023-03-26T00:24:37;3.50;;;2.20;;
24137;SDS011;17947;50.672;6.076;2023-03-26T00:27:04;4.95;;;1.90;;
24137;SDS011;17947;50.672;6.076;2023-03-26T00:29:30;4.22;;;2.05;;
24137;SDS011;17947;50.672;6.076;2023-03-26T00:31:57;4.78;;;2.03;;
24137;SDS011;17947;50.672;6.076;2023-03-26T00:34:23;4.57;;;1.88;;
24137;SDS011;17947;50.672;6.076;2023-03-26T00:36:50;6.38;;;2.20;;
24137;SDS011;17947;50.672;6.076;2023-03-26T00:39:26;4.47;;;2.22;;
24137;SDS011;17947;50.672;6.076;2023-03-26T00:41:53;5.28;;;2.15;;
24137;SDS011;17947;50.672;6.076;2023-03-26T00:44:19;3.17;;;1.92;;
24137;SDS011;17947;50.672;6.076;2023-03-26T00:46:45;3.65;;;1.92;;
24137;SDS011;17947;50.672;6.076;2023-03-26T00:49:11;4.57;;;1.85;;
24137;SDS011;17947;50.672;6.076;2023-03-26T00:51:39;4.38;;;2.00;;
24137;SDS011;17947;50.672;6.076;2023-03-26T00:54:06;3.00;;;2.00;;
24137;SDS011;17947;50.672;6.076;2023-03-26T00:56:32;3.90;;;1.98;;
24137;SDS011;17947;50.672;6.076;2023-03-26T00:58:58;3.42;;;1.85;;
24137;SDS011;17947;50.672;6.076;2023-03-26T01:01:25;4.38;;;2.10;;
24137;SDS011;17947;50.672;6.076;2023-03-26T01:03:52;4.50;;;1.88;;
24137;SDS011;17947;50.672;6.076;2023-03-26T01:06:26;4.63;;;2.17;;
24137;SDS011;17947;50.672;6.076;2023-03-26T01:08:57;4.90;;;2.50;;
24137;SDS011;17947;50.672;6.076;2023-03-26T01:11:31;4.38;;;2.03;;
24137;SDS011;17947;50.672;6.076;2023-03-26T01:13:59;4.35;;;2.25;;
24137;SDS011;17947;50.672;6.076;2023-03-26T01:16:26;3.70;;;2.00;;
24137;SDS011;17947;50.672;6.076;2023-03-26T01:18:53;3.92;;;2.10;;
24137;SDS011;17947;50.672;6.076;2023-03-26T01:21:23;5.78;;;2.22;;
24137;SDS011;17947;50.672;6.076;2023-03-26T01:28:51;3.60;;;2.00;;
24137;SDS011;17947;50.672;6.076;2023-03-26T01:33:48;4.47;;;1.83;;
24137;SDS011;17947;50.672;6.076;2023-03-26T01:37:01;5.13;;;2.47;;
24137;SDS011;17947;50.672;6.076;2023-03-26T01:42:00;4.50;;;1.95;;
24137;SDS011;17947;50.672;6.076;2023-03-26T01:44:33;4.75;;;2.17;;
24137;SDS011;17947;50.672;6.076;2023-03-26T01:47:03;4.35;;;1.70;;
24137;SDS011;17947;50.672;6.076;2023-03-26T01:49:30;4.80;;;1.85;;
24137;SDS011;17947;50.672;6.076;2023-03-26T01:51:57;4.10;;;2.13;;
24137;SDS011;17947;50.672;6.076;2023-03-26T01:54:27;3.25;;;1.98;;
24137;SDS011;17947;50.672;6.076;2023-03-26T02:04:33;4.10;;;1.70;;
24137;SDS011;17947;50.672;6.076;2023-03-26T02:07:07;3.92;;;1.83;;
24137;SDS011;17947;50.672;6.076;2023-03-26T02:09:41;2.63;;;1.55;;
24137;SDS011;17947;50.672;6.076;2023-03-26T02:12:10;3.53;;;1.60;;
24137;SDS011;17947;50.672;6.076;2023-03-26T02:14:36;4.10;;;1.85;;
24137;SDS011;17947;50.672;6.076;2023-03-26T02:17:02;3.67;;;1.60;;
24137;SDS011;17947;50.672;6.076;2023-03-26T02:19:28;1.85;;;1.40;;
24137;SDS011;17947;50.672;6.076;2023-03-26T02:21:54;3.42;;;1.60;;
24137;SDS011;17947;50.672;6.076;2023-03-26T02:24:24;3.42;;;1.67;;
24137;SDS011;17947;50.672;6.076;2023-03-26T02:26:50;3.60;;;1.80;;
24137;SDS011;17947;50.672;6.076;2023-03-26T02:29:16;3.83;;;1.70;;
24137;SDS011;17947;50.672;6.076;2023-03-26T02:31:44;2.80;;;1.35;;
24137;SDS011;17947;50.672;6.076;2023-03-26T02:34:12;2.75;;;1.35;;
24137;SDS011;17947;50.672;6.076;2023-03-26T02:36:38;3.22;;;1.60;;
24137;SDS011;17947;50.672;6.076;2023-03-26T02:39:06;2.83;;;1.42;;
24137;SDS011;17947;50.672;6.076;2023-03-26T02:41:33;3.13;;;1.40;;
24137;SDS011;17947;50.672;6.076;2023-03-26T02:43:59;2.83;;;1.73;;
24137;SDS011;17947;50.672;6.076;2023-03-26T02:46:25;2.13;;;1.40;;
24137;SDS011;17947;50.672;6.076;2023-03-26T02:48:51;5.70;;;1.90;;
24137;SDS011;17947;50.672;6.076;2023-03-26T02:51:17;3.33;;;1.27;;
24137;SDS011;17947;50.672;6.076;2023-03-26T02:53:44;2.83;;;1.40;;
24137;SDS011;17947;50.672;6.076;2023-03-26T02:56:11;3.33;;;1.55;;
24137;SDS011;17947;50.672;6.076;2023-03-26T02:58:37;3.58;;;1.52;;
24137;SDS011;17947;50.672;6.076;2023-03-26T03:01:03;2.28;;;1.20;;
24137;SDS011;17947;50.672;6.076;2023-03-26T03:03:29;2.17;;;1.20;;
24137;SDS011;17947;50.672;6.076;2023-03-26T03:05:55;3.20;;;1.70;;
24137;SDS011;17947;50.672;6.076;2023-03-26T03:08:23;3.72;;;1.30;;
24137;SDS011;17947;50.672;6.076;2023-03-26T03:13:46;2.45;;;1.33;;
24137;SDS011;17947;50.672;6.076;2023-03-26T03:16:12;1.70;;;1.10;;
24137;SDS011;17947;50.672;6.076;2023-03-26T03:18:38;2.88;;;1.35;;
24137;SDS011;17947;50.672;6.076;2023-03-26T03:21:04;2.30;;;1.15;;
24137;SDS011;17947;50.672;6.076;2023-03-26T03:23:30;1.88;;;1.33;;
24137;SDS011;17947;50.672;6.076;2023-03-26T03:25:57;1.38;;;0.88;;
24137;SDS011;17947;50.672;6.076;2023-03-26T03:28:23;1.40;;;1.00;;
24137;SDS011;17947;50.672;6.076;2023-03-26T03:30:49;3.30;;;1.30;;
24137;SDS011;17947;50.672;6.076;2023-03-26T03:33:21;2.58;;;1.13;;
24137;SDS011;17947;50.672;6.076;2023-03-26T03:35:48;2.80;;;1.10;;
24137;SDS011;17947;50.672;6.076;2023-03-26T03:38:17;2.80;;;1.35;;
24137;SDS011;17947;50.672;6.076;2023-03-26T03:40:43;1.98;;;1.38;;
24137;SDS011;17947;50.672;6.076;2023-03-26T03:43:10;2.92;;;1.10;;
24137;SDS011;17947;50.672;6.076;2023-03-26T03:45:36;2.20;;;1.10;;
24137;SDS011;17947;50.672;6.076;2023-03-26T03:48:02;2.55;;;1.20;;
24137;SDS011;17947;50.672;6.076;2023-03-26T03:50:28;1.75;;;0.98;;
24137;SDS011;17947;50.672;6.076;2023-03-26T03:52:55;2.97;;;1.08;;
24137;SDS011;17947;50.672;6.076;2023-03-26T03:55:23;2.00;;;1.05;;
24137;SDS011;17947;50.672;6.076;2023-03-26T03:57:51;2.45;;;1.02;;
24137;SDS011;17947;50.672;6.076;2023-03-26T04:00:18;2.60;;;0.95;;
24137;SDS011;17947;50.672;6.076;2023-03-26T04:02:44;2.85;;;1.00;;
24137;SDS011;17947;50.672;6.076;2023-03-26T04:05:10;3.05;;;1.25;;
24137;SDS011;17947;50.672;6.076;2023-03-26T04:07:36;3.47;;;1.10;;
24137;SDS011;17947;50.672;6.076;2023-03-26T04:10:03;3.17;;;1.02;;
24137;SDS011;17947;50.672;6.076;2023-03-26T04:12:29;3.25;;;1.10;;
24137;SDS011;17947;50.672;6.076;2023-03-26T04:14:56;1.52;;;1.00;;
24137;SDS011;17947;50.672;6.076;2023-03-26T04:17:22;3.10;;;1.20;;
24137;SDS011;17947;50.672;6.076;2023-03-26T04:19:49;2.40;;;1.10;;
24137;SDS011;17947;50.672;6.076;2023-03-26T04:22:19;1.80;;;1.00;;
24137;SDS011;17947;50.672;6.076;2023-03-26T04:24:45;2.40;;;1.20;;
24137;SDS011;17947;50.672;6.076;2023-03-26T04:27:14;2.47;;;1.10;;
24137;SDS011;17947;50.672;6.076;2023-03-26T04:29:41;1.60;;;0.88;;
24137;SDS011;17947;50.672;6.076;2023-03-26T04:32:09;3.05;;;0.90;;
24137;SDS011;17947;50.672;6.076;2023-03-26T04:34:38;2.72;;;1.17;;
24137;SDS011;17947;50.672;6.076;2023-03-26T04:37:04;2.67;;;1.00;;
24137;SDS011;17947;50.672;6.076;2023-03-26T04:39:30;3.00;;;1.05;;
24137;SDS011;17947;50.672;6.076;2023-03-26T04:41:58;1.25;;;0.90;;
24137;SDS011;17947;50.672;6.076;2023-03-26T04:44:24;2.42;;;1.20;;
24137;SDS011;17947;50.672;6.076;2023-03-26T04:46:51;2.33;;;1.02;;
24137;SDS011;17947;50.672;6.076;2023-03-26T04:49:17;2.40;;;1.10;;
24137;SDS011;17947;50.672;6.076;2023-03-26T04:51:43;2.58;;;1.23;;
24137;SDS011;17947;50.672;6.076;2023-03-26T04:54:11;1.05;;;0.88;;
24137;SDS011;17947;50.672;6.076;2023-03-26T04:56:39;2.63;;;1.20;;
24137;SDS011;17947;50.672;6.076;2023-03-26T04:59:07;2.10;;;0.95;;
24137;SDS011;17947;50.672;6.076;2023-03-26T05:01:37;1.92;;;1.00;;
24137;SDS011;17947;50.672;6.076;2023-03-26T05:04:04;1.67;;;1.15;;
24137;SDS011;17947;50.672;6.076;2023-03-26T05:06:30;1.75;;;1.00;;
24137;SDS011;17947;50.672;6.076;2023-03-26T05:08:58;1.98;;;1.00;;
24137;SDS011;17947;50.672;6.076;2023-03-26T05:11:25;1.67;;;1.00;;
24137;SDS011;17947;50.672;6.076;2023-03-26T05:13:51;0.98;;;0.68;;
24137;SDS011;17947;50.672;6.076;2023-03-26T05:16:17;2.17;;;0.90;;
24137;SDS011;17947;50.672;6.076;2023-03-26T05:18:43;2.25;;;0.95;;
24137;SDS011;17947;50.672;6.076;2023-03-26T05:21:10;2.92;;;1.13;;
24137;SDS011;17947;50.672;6.076;2023-03-26T05:23:36;1.63;;;0.70;;
24137;SDS011;17947;50.672;6.076;2023-03-26T05:26:03;1.33;;;0.98;;
24137;SDS011;17947;50.672;6.076;2023-03-26T05:28:31;2.60;;;0.90;;
24137;SDS011;17947;50.672;6.076;2023-03-26T05:30:57;1.73;;;1.02;;
24137;SDS011;17947;50.672;6.076;2023-03-26T05:33:25;0.73;;;0.60;;
24137;SDS011;17947;50.672;6.076;2023-03-26T05:35:58;1.15;;;0.90;;
24137;SDS011;17947;50.672;6.076;2023-03-26T05:38:25;1.25;;;0.80;;
24137;SDS011;17947;50.672;6.076;2023-03-26T05:40:56;1.95;;;0.63;;
24137;SDS011;17947;50.672;6.076;2023-03-26T05:43:23;2.15;;;0.80;;
24137;SDS011;17947;50.672;6.076;2023-03-26T05:45:49;2.58;;;1.08;;
24137;SDS011;17947;50.672;6.076;2023-03-26T05:48:15;1.08;;;0.82;;
24137;SDS011;17947;50.672;6.076;2023-03-26T05:50:42;1.13;;;0.80;;
24137;SDS011;17947;50.672;6.076;2023-03-26T05:53:08;1.50;;;0.90;;
24137;SDS011;17947;50.672;6.076;2023-03-26T05:55:34;1.02;;;0.75;;
24137;SDS011;17947;50.672;6.076;2023-03-26T05:58:00;0.90;;;0.70;;
24137;SDS011;17947;50.672;6.076;2023-03-26T06:00:26;2.30;;;0.90;;
24137;SDS011;17947;50.672;6.076;2023-03-26T06:02:52;1.30;;;0.80;;
24137;SDS011;17947;50.672;6.076;2023-03-26T06:05:19;1.35;;;0.98;;
24137;SDS011;17947;50.672;6.076;2023-03-26T06:07:45;1.98;;;0.70;;
24137;SDS011;17947;50.672;6.076;2023-03-26T06:10:11;2.70;;;0.80;;
24137;SDS011;17947;50.672;6.076;2023-03-26T06:12:37;2.15;;;0.70;;
24137;SDS011;17947;50.672;6.076;2023-03-26T06:15:03;1.85;;;0.80;;
24137;SDS011;17947;50.672;6.076;2023-03-26T06:17:30;2.00;;;0.85;;
24137;SDS011;17947;50.672;6.076;2023-03-26T06:19:56;0.98;;;0.70;;
24137;SDS011;17947;50.672;6.076;2023-03-26T06:22:22;2.83;;;0.63;;
24137;SDS011;17947;50.672;6.076;2023-03-26T06:24:48;1.25;;;0.70;;
24137;SDS011;17947;50.672;6.076;2023-03-26T06:27:16;2.28;;;0.65;;
24137;SDS011;17947;50.672;6.076;2023-03-26T06:29:42;2.50;;;1.00;;
24137;SDS011;17947;50.672;6.076;2023-03-26T06:32:08;3.90;;;0.90;;
24137;SDS011;17947;50.672;6.076;2023-03-26T06:34:34;3.13;;;0.80;;
24137;SDS011;17947;50.672;6.076;2023-03-26T06:37:00;1.45;;;0.70;;
24137;SDS011;17947;50.672;6.076;2023-03-26T06:39:26;1.13;;;0.80;;
24137;SDS011;17947;50.672;6.076;2023-03-26T06:41:53;1.75;;;0.60;;
24137;SDS011;17947;50.672;6.076;2023-03-26T06:44:19;0.70;;;0.68;;
24137;SDS011;17947;50.672;6.076;2023-03-26T06:46:44;1.38;;;0.65;;
24137;SDS011;17947;50.672;6.076;2023-03-26T06:49:10;2.60;;;0.80;;
24137;SDS011;17947;50.672;6.076;2023-03-26T06:51:36;0.93;;;0.68;;
24137;SDS011;17947;50.672;6.076;2023-03-26T06:54:05;1.95;;;0.70;;
24137;SDS011;17947;50.672;6.076;2023-03-26T06:56:31;1.58;;;0.73;;
24137;SDS011;17947;50.672;6.076;2023-03-26T06:58:57;2.33;;;0.82;;
24137;SDS011;17947;50.672;6.076;2023-03-26T07:01:23;1.10;;;0.75;;
24137;SDS011;17947;50.672;6.076;2023-03-26T07:03:49;0.80;;;0.63;;
24137;SDS011;17947;50.672;6.076;2023-03-26T07:06:15;0.90;;;0.65;;
24137;SDS011;17947;50.672;6.076;2023-03-26T07:08:41;1.33;;;0.50;;
24137;SDS011;17947;50.672;6.076;2023-03-26T07:11:07;1.67;;;0.80;;
24137;SDS011;17947;50.672;6.076;2023-03-26T07:13:33;1.02;;;0.50;;
24137;SDS011;17947;50.672;6.076;2023-03-26T07:16:00;0.85;;;0.65;;
24137;SDS011;17947;50.672;6.076;2023-03-26T07:18:26;2.60;;;0.70;;
24137;SDS011;17947;50.672;6.076;2023-03-26T07:20:53;0.70;;;0.70;;
24137;SDS011;17947;50.672;6.076;2023-03-26T07:23:19;1.80;;;0.77;;
24137;SDS011;17947;50.672;6.076;2023-03-26T07:25:46;1.23;;;0.68;;
24137;SDS011;17947;50.672;6.076;2023-03-26T07:28:17;1.63;;;0.73;;
24137;SDS011;17947;50.672;6.076;2023-03-26T07:30:48;1.45;;;0.80;;
24137;SDS011;17947;50.672;6.076;2023-03-26T07:33:20;1.13;;;0.70;;
24137;SDS011;17947;50.672;6.076;2023-03-26T07:35:55;0.57;;;0.57;;
24137;SDS011;17947;50.672;6.076;2023-03-26T07:40:59;1.08;;;0.60;;
24137;SDS011;17947;50.672;6.076;2023-03-26T07:43:43;1.45;;;0.70;;
24137;SDS011;17947;50.672;6.076;2023-03-26T07:46:12;1.67;;;0.60;;
24137;SDS011;17947;50.672;6.076;2023-03-26T07:48:43;1.45;;;0.60;;
24137;SDS011;17947;50.672;6.076;2023-03-26T07:51:12;2.40;;;0.75;;
24137;SDS011;17947;50.672;6.076;2023-03-26T07:53:38;8.85;;;0.90;;
24137;SDS011;17947;50.672;6.076;2023-03-26T07:56:27;19.13;;;1.70;;
24137;SDS011;17947;50.672;6.076;2023-03-26T07:59:03;20.38;;;1.65;;
24137;SDS011;17947;50.672;6.076;2023-03-26T08:01:37;21.83;;;2.35;;
24137;SDS011;17947;50.672;6.076;2023-03-26T08:04:12;24.35;;;2.22;;
24137;SDS011;17947;50.672;6.076;2023-03-26T08:06:46;21.08;;;2.20;;
24137;SDS011;17947;50.672;6.076;2023-03-26T08:12:06;22.58;;;2.63;;
24137;SDS011;17947;50.672;6.076;2023-03-26T08:17:14;15.75;;;1.88;;
24137;SDS011;17947;50.672;6.076;2023-03-26T08:27:39;11.90;;;1.50;;
24137;SDS011;17947;50.672;6.076;2023-03-26T08:30:10;6.25;;;1.50;;
24137;SDS011;17947;50.672;6.076;2023-03-26T08:32:38;12.70;;;1.60;;
24137;SDS011;17947;50.672;6.076;2023-03-26T08:35:05;14.50;;;1.80;;
24137;SDS011;17947;50.672;6.076;2023-03-26T08:37:33;9.10;;;1.90;;
24137;SDS011;17947;50.672;6.076;2023-03-26T08:39:59;8.77;;;1.65;;
24137;SDS011;17947;50.672;6.076;2023-03-26T08:42:36;6.30;;;1.67;;
24137;SDS011;17947;50.672;6.076;2023-03-26T09:00:52;4.03;;;1.45;;
24137;SDS011;17947;50.672;6.076;2023-03-26T09:03:38;5.25;;;1.20;;
24137;SDS011;17947;50.672;6.076;2023-03-26T09:37:23;3.92;;;1.05;;
24137;SDS011;17947;50.672;6.076;2023-03-26T09:39:59;5.32;;;1.63;;
24137;SDS011;17947;50.672;6.076;2023-03-26T09:42:37;2.13;;;1.10;;
24137;SDS011;17947;50.672;6.076;2023-03-26T09:45:39;2.72;;;1.13;;
24137;SDS011;17947;50.672;6.076;2023-03-26T09:48:09;4.05;;;1.25;;
24137;SDS011;17947;50.672;6.076;2023-03-26T09:50:48;2.97;;;1.20;;
24137;SDS011;17947;50.672;6.076;2023-03-26T09:58:35;3.63;;;1.17;;
24137;SDS011;17947;50.672;6.076;2023-03-26T10:24:32;29.92;;;3.17;;
24137;SDS011;17947;50.672;6.076;2023-03-26T10:30:14;27.20;;;3.42;;
24137;SDS011;17947;50.672;6.076;2023-03-26T10:32:49;21.65;;;2.53;;
24137;SDS011;17947;50.672;6.076;2023-03-26T10:35:33;18.83;;;2.75;;
24137;SDS011;17947;50.672;6.076;2023-03-26T10:45:47;11.35;;;1.98;;
24137;SDS011;17947;50.672;6.076;2023-03-26T10:48:22;15.95;;;2.13;;
24137;SDS011;17947;50.672;6.076;2023-03-26T10:50:53;19.25;;;2.05;;
24137;SDS011;17947;50.672;6.076;2023-03-26T10:58:40;12.75;;;2.10;;
24137;SDS011;17947;50.672;6.076;2023-03-26T11:03:51;10.55;;;1.92;;
24137;SDS011;17947;50.672;6.076;2023-03-26T11:06:39;9.60;;;2.00;;
24137;SDS011;17947;50.672;6.076;2023-03-26T11:09:12;11.48;;;1.70;;
24137;SDS011;17947;50.672;6.076;2023-03-26T11:17:29;6.97;;;1.90;;
24137;SDS011;17947;50.672;6.076;2023-03-26T11:20:02;7.32;;;1.70;;
24137;SDS011;17947;50.672;6.076;2023-03-26T11:25:00;8.52;;;1.30;;
24137;SDS011;17947;50.672;6.076;2023-03-26T11:30:17;6.63;;;1.70;;
24137;SDS011;17947;50.672;6.076;2023-03-26T11:33:09;3.03;;;1.20;;
24137;SDS011;17947;50.672;6.076;2023-03-26T11:35:34;7.97;;;1.70;;
24137;SDS011;17947;50.672;6.076;2023-03-26T11:38:03;5.70;;;1.83;;
24137;SDS011;17947;50.672;6.076;2023-03-26T11:40:40;2.63;;;1.20;;
24137;SDS011;17947;50.672;6.076;2023-03-26T11:43:07;8.35;;;1.40;;
24137;SDS011;17947;50.672;6.076;2023-03-26T11:45:35;4.80;;;1.35;;
24137;SDS011;17947;50.672;6.076;2023-03-26T11:48:07;4.70;;;1.45;;
24137;SDS011;17947;50.672;6.076;2023-03-26T11:50:37;4.72;;;1.40;;
24137;SDS011;17947;50.672;6.076;2023-03-26T11:53:09;5.60;;;1.40;;
24137;SDS011;17947;50.672;6.076;2023-03-26T11:55:38;3.50;;;1.20;;
24137;SDS011;17947;50.672;6.076;2023-03-26T11:58:20;4.82;;;1.40;;
24137;SDS011;17947;50.672;6.076;2023-03-26T12:00:47;2.90;;;1.10;;
24137;SDS011;17947;50.672;6.076;2023-03-26T12:03:14;4.25;;;1.20;;
24137;SDS011;17947;50.672;6.076;2023-03-26T12:05:48;3.03;;;1.20;;
24137;SDS011;17947;50.672;6.076;2023-03-26T12:08:16;4.18;;;1.20;;
24137;SDS011;17947;50.672;6.076;2023-03-26T12:10:43;21.00;;;2.30;;
24137;SDS011;17947;50.672;6.076;2023-03-26T12:13:28;32.03;;;2.60;;
24137;SDS011;17947;50.672;6.076;2023-03-26T12:15:57;29.33;;;2.58;;
24137;SDS011;17947;50.672;6.076;2023-03-26T12:18:26;17.80;;;2.15;;
24137;SDS011;17947;50.672;6.076;2023-03-26T12:21:03;64.40;;;5.10;;
24137;SDS011;17947;50.672;6.076;2023-03-26T12:23:34;113.70;;;9.15;;
24137;SDS011;17947;50.672;6.076;2023-03-26T12:26:10;154.95;;;10.60;;
24137;SDS011;17947;50.672;6.076;2023-03-26T12:28:42;145.82;;;11.38;;
24137;SDS011;17947;50.672;6.076;2023-03-26T12:31:09;244.27;;;17.85;;
24137;SDS011;17947;50.672;6.076;2023-03-26T12:33:42;197.52;;;17.40;;
24137;SDS011;17947;50.672;6.076;2023-03-26T12:36:41;191.77;;;16.67;;
24137;SDS011;17947;50.672;6.076;2023-03-26T12:39:14;173.07;;;16.38;;
24137;SDS011;17947;50.672;6.076;2023-03-26T12:41:53;132.52;;;13.23;;
24137;SDS011;17947;50.672;6.076;2023-03-26T12:46:52;143.23;;;13.52;;
24137;SDS011;17947;50.672;6.076;2023-03-26T12:49:31;150.10;;;14.55;;
24137;SDS011;17947;50.672;6.076;2023-03-26T12:52:03;316.33;;;28.55;;
24137;SDS011;17947;50.672;6.076;2023-03-26T12:54:50;277.83;;;22.88;;
24137;SDS011;17947;50.672;6.076;2023-03-26T12:57:19;210.25;;;21.42;;
24137;SDS011;17947;50.672;6.076;2023-03-26T13:07:41;120.50;;;15.23;;
24137;SDS011;17947;50.672;6.076;2023-03-26T13:12:44;119.47;;;13.55;;
24137;SDS011;17947;50.672;6.076;2023-03-26T13:15:22;102.57;;;12.52;;
24137;SDS011;17947;50.672;6.076;2023-03-26T13:30:43;56.28;;;8.75;;
24137;SDS011;17947;50.672;6.076;2023-03-26T13:35:39;69.50;;;8.52;;
24137;SDS011;17947;50.672;6.076;2023-03-26T13:48:46;41.75;;;6.90;;
24137;SDS011;17947;50.672;6.076;2023-03-26T13:51:17;33.85;;;6.10;;
24137;SDS011;17947;50.672;6.076;2023-03-26T13:53:49;42.50;;;7.07;;
24137;SDS011;17947;50.672;6.076;2023-03-26T13:56:16;41.65;;;6.22;;
24137;SDS011;17947;50.672;6.076;2023-03-26T14:01:30;28.65;;;5.45;;
24137;SDS011;17947;50.672;6.076;2023-03-26T14:04:43;36.50;;;6.20;;
24137;SDS011;17947;50.672;6.076;2023-03-26T14:14:47;26.55;;;4.75;;
24137;SDS011;17947;50.672;6.076;2023-03-26T14:19:55;23.27;;;4.53;;
24137;SDS011;17947;50.672;6.076;2023-03-26T14:25:07;26.80;;;4.40;;
24137;SDS011;17947;50.672;6.076;2023-03-26T14:27:48;21.83;;;3.78;;
24137;SDS011;17947;50.672;6.076;2023-03-26T14:40:57;14.20;;;3.67;;
24137;SDS011;17947;50.672;6.076;2023-03-26T14:43:32;11.00;;;3.40;;
24137;SDS011;17947;50.672;6.076;2023-03-26T14:46:48;11.80;;;3.75;;
24137;SDS011;17947;50.672;6.076;2023-03-26T14:54:21;11.77;;;3.40;;
24137;SDS011;17947;50.672;6.076;2023-03-26T15:30:28;7.25;;;2.38;;
24137;SDS011;17947;50.672;6.076;2023-03-26T15:43:09;7.38;;;2.00;;
24137;SDS011;17947;50.672;6.076;2023-03-26T15:45:37;6.57;;;1.80;;
24137;SDS011;17947;50.672;6.076;2023-03-26T15:53:11;4.72;;;1.95;;
24137;SDS011;17947;50.672;6.076;2023-03-26T15:55:45;4.85;;;2.28;;
24137;SDS011;17947;50.672;6.076;2023-03-26T15:58:20;6.55;;;2.00;;
24137;SDS011;17947;50.672;6.076;2023-03-26T16:03:41;4.70;;;1.85;;
24137;SDS011;17947;50.672;6.076;2023-03-26T16:06:26;6.75;;;2.47;;
24137;SDS011;17947;50.672;6.076;2023-03-26T16:14:16;3.53;;;2.00;;
24137;SDS011;17947;50.672;6.076;2023-03-26T16:16:47;3.83;;;1.73;;
24137;SDS011;17947;50.672;6.076;2023-03-26T16:21:53;6.30;;;1.90;;
24137;SDS011;17947;50.672;6.076;2023-03-26T16:24:22;4.32;;;1.77;;
24137;SDS011;17947;50.672;6.076;2023-03-26T16:27:33;2.97;;;1.52;;
24137;SDS011;17947;50.672;6.076;2023-03-26T16:32:40;7.93;;;1.90;;
24137;SDS011;17947;50.672;6.076;2023-03-26T16:37:42;2.72;;;1.33;;
24137;SDS011;17947;50.672;6.076;2023-03-26T16:45:16;5.13;;;1.40;;
24137;SDS011;17947;50.672;6.076;2023-03-26T16:47:49;2.40;;;1.20;;
24137;SDS011;17947;50.672;6.076;2023-03-26T16:56:33;2.25;;;1.30;;
24137;SDS011;17947;50.672;6.076;2023-03-26T16:58:37;2.97;;;1.10;;
24137;SDS011;17947;50.672;6.076;2023-03-26T17:11:59;1.52;;;1.15;;
24137;SDS011;17947;50.672;6.076;2023-03-26T17:19:55;1.08;;;0.77;;
24137;SDS011;17947;50.672;6.076;2023-03-26T17:22:57;1.45;;;1.05;;
24137;SDS011;17947;50.672;6.076;2023-03-26T17:27:55;2.20;;;1.10;;
24137;SDS011;17947;50.672;6.076;2023-03-26T17:33:10;1.48;;;0.90;;
24137;SDS011;17947;50.672;6.076;2023-03-26T17:35:46;1.83;;;1.00;;
24137;SDS011;17947;50.672;6.076;2023-03-26T17:43:50;1.35;;;0.90;;
24137;SDS011;17947;50.672;6.076;2023-03-26T17:48:42;3.42;;;1.17;;
24137;SDS011;17947;50.672;6.076;2023-03-26T17:53:42;1.45;;;1.13;;
24137;SDS011;17947;50.672;6.076;2023-03-26T17:56:13;2.03;;;0.95;;
24137;SDS011;17947;50.672;6.076;2023-03-26T17:58:41;1.00;;;0.80;;
24137;SDS011;17947;50.672;6.076;2023-03-26T18:03:40;2.90;;;1.00;;
24137;SDS011;17947;50.672;6.076;2023-03-26T18:06:18;1.23;;;1.00;;
24137;SDS011;17947;50.672;6.076;2023-03-26T18:16:50;2.72;;;0.90;;
24137;SDS011;17947;50.672;6.076;2023-03-26T18:19:18;0.95;;;0.90;;
24137;SDS011;17947;50.672;6.076;2023-03-26T18:21:56;1.73;;;0.90;;
24137;SDS011;17947;50.672;6.076;2023-03-26T18:24:24;1.45;;;1.00;;
24137;SDS011;17947;50.672;6.076;2023-03-26T18:27:00;1.77;;;1.15;;
24137;SDS011;17947;50.672;6.076;2023-03-26T18:29:27;2.00;;;0.90;;
24137;SDS011;17947;50.672;6.076;2023-03-26T18:34:20;0.88;;;0.70;;
24137;SDS011;17947;50.672;6.076;2023-03-26T18:37:28;1.75;;;0.90;;
24137;SDS011;17947;50.672;6.076;2023-03-26T18:40:00;3.17;;;1.00;;
24137;SDS011;17947;50.672;6.076;2023-03-26T18:42:26;1.83;;;1.00;;
24137;SDS011;17947;50.672;6.076;2023-03-26T18:44:52;3.10;;;1.10;;
24137;SDS011;17947;50.672;6.076;2023-03-26T18:47:20;1.45;;;1.00;;
24137;SDS011;17947;50.672;6.076;2023-03-26T18:49:47;2.25;;;1.00;;
24137;SDS011;17947;50.672;6.076;2023-03-26T18:52:15;1.00;;;0.90;;
24137;SDS011;17947;50.672;6.076;2023-03-26T18:54:42;2.28;;;1.10;;
24137;SDS011;17947;50.672;6.076;2023-03-26T18:57:14;1.30;;;0.98;;
24137;SDS011;17947;50.672;6.076;2023-03-26T18:59:44;1.08;;;0.93;;
24137;SDS011;17947;50.672;6.076;2023-03-26T19:02:10;1.95;;;1.00;;
24137;SDS011;17947;50.672;6.076;2023-03-26T19:04:37;1.38;;;0.98;;
24137;SDS011;17947;50.672;6.076;2023-03-26T19:07:07;2.20;;;1.10;;
24137;SDS011;17947;50.672;6.076;2023-03-26T19:09:36;1.67;;;1.15;;
24137;SDS011;17947;50.672;6.076;2023-03-26T19:12:04;2.53;;;1.00;;
24137;SDS011;17947;50.672;6.076;2023-03-26T19:14:30;2.53;;;1.08;;
24137;SDS011;17947;50.672;6.076;2023-03-26T19:17:00;2.30;;;0.90;;
24137;SDS011;17947;50.672;6.076;2023-03-26T19:19:31;1.35;;;1.23;;
24137;SDS011;17947;50.672;6.076;2023-03-26T19:22:00;2.10;;;1.20;;
24137;SDS011;17947;50.672;6.076;2023-03-26T19:24:27;1.63;;;0.90;;
24137;SDS011;17947;50.672;6.076;2023-03-26T19:26:53;3.60;;;1.05;;
24137;SDS011;17947;50.672;6.076;2023-03-26T19:29:23;1.45;;;1.08;;
24137;SDS011;17947;50.672;6.076;2023-03-26T19:31:50;1.65;;;1.30;;
24137;SDS011;17947;50.672;6.076;2023-03-26T19:34:24;2.58;;;0.95;;
24137;SDS011;17947;50.672;6.076;2023-03-26T19:39:29;2.05;;;1.00;;
24137;SDS011;17947;50.672;6.076;2023-03-26T19:41:59;2.55;;;0.80;;
24137;SDS011;17947;50.672;6.076;2023-03-26T19:44:27;1.30;;;0.90;;
24137;SDS011;17947;50.672;6.076;2023-03-26T19:47:07;1.20;;;1.00;;
24137;SDS011;17947;50.672;6.076;2023-03-26T19:49:40;1.92;;;1.00;;
24137;SDS011;17947;50.672;6.076;2023-03-26T19:52:13;1.08;;;0.80;;
24137;SDS011;17947;50.672;6.076;2023-03-26T19:57:25;2.63;;;0.90;;
24137;SDS011;17947;50.672;6.076;2023-03-26T19:59:52;3.80;;;1.00;;
24137;SDS011;17947;50.672;6.076;2023-03-26T20:02:19;3.17;;;0.90;;
24137;SDS011;17947;50.672;6.076;2023-03-26T20:04:46;1.45;;;1.00;;
24137;SDS011;17947;50.672;6.076;2023-03-26T20:07:16;2.47;;;1.20;;
24137;SDS011;17947;50.672;6.076;2023-03-26T20:09:43;2.72;;;1.17;;
24137;SDS011;17947;50.672;6.076;2023-03-26T20:12:10;2.08;;;1.00;;
24137;SDS011;17947;50.672;6.076;2023-03-26T20:14:36;1.65;;;1.10;;
24137;SDS011;17947;50.672;6.076;2023-03-26T20:17:02;1.48;;;0.98;;
24137;SDS011;17947;50.672;6.076;2023-03-26T20:19:29;0.90;;;0.80;;
24137;SDS011;17947;50.672;6.076;2023-03-26T20:21:55;2.92;;;0.85;;
24137;SDS011;17947;50.672;6.076;2023-03-26T20:24:22;1.45;;;1.00;;
24137;SDS011;17947;50.672;6.076;2023-03-26T20:26:48;1.98;;;0.80;;
24137;SDS011;17947;50.672;6.076;2023-03-26T20:29:15;2.13;;;1.00;;
24137;SDS011;17947;50.672;6.076;2023-03-26T20:31:41;1.70;;;1.02;;
24137;SDS011;17947;50.672;6.076;2023-03-26T20:34:10;2.88;;;1.08;;
24137;SDS011;17947;50.672;6.076;2023-03-26T20:36:39;1.33;;;0.88;;
24137;SDS011;17947;50.672;6.076;2023-03-26T20:39:05;2.80;;;0.98;;